Time;durP1;ratioP1;P1;durP2;ratioP2;P2;SDS_P1;SDS_P2;PMS_P1;PMS_P2;Temp;Humidity;BMP_temperature;BMP_pressure;BME280_temperature;BME280_humidity;BME280_pressure;Samples;Min_cycle;Max_cycle;Signal;HPM_P1;HPM_P2
2022/12/08 00:00:13;;;;;;;0.60;0.60;;;;;;;0.91;85.78;96464.66;29371;203;64009;-56
2022/12/08 00:00:44;;;;;;;0.60;0.60;;;;;;;0.93;85.79;96467.91;29373;205;63009;-57
2022/12/08 00:01:19;;;;;;;0.62;0.62;;;;;;;0.94;85.85;96459.63;29373;207;63005;-55
2022/12/08 00:01:50;;;;;;;0.70;0.70;;;;;;;0.94;85.19;96461.50;29373;208;63009;-56
2022/12/08 00:02:22;;;;;;;0.70;0.70;;;;;;;0.95;84.97;96468.47;29372;353;64004;-56
2022/12/08 00:02:54;;;;;;;0.60;0.60;;;;;;;0.97;85.35;96463.69;29373;222;63009;-56
2022/12/08 00:03:26;;;;;;;0.70;0.70;;;;;;;0.96;84.94;96462.06;29373;255;63004;-55
2022/12/08 00:04:02;;;;;;;0.60;0.60;;;;;;;0.97;84.83;96461.03;29373;266;63009;-56
2022/12/08 00:09:20;;;;;;;0.60;0.60;;;;;;;0.97;84.94;96467.16;29373;224;63004;-56
2022/12/08 00:09:22;;;;;;;0.60;0.60;;;;;;;0.99;84.17;96465.06;29373;344;63009;-56
2022/12/08 00:09:53;;;;;;;0.60;0.60;;;;;;;0.98;84.35;96462.63;29373;218;63004;-56
2022/12/08 00:10:26;;;;;;;0.60;0.60;;;;;;;0.96;83.94;96460.22;29373;203;63009;-56
2022/12/08 00:10:57;;;;;;;0.70;0.70;;;;;;;0.95;84.16;96460.44;29371;263;64009;-56
2022/12/08 00:11:28;;;;;;;0.68;0.68;;;;;;;0.95;83.94;96457.78;29373;236;63009;-56
2022/12/08 00:12:11;;;;;;;0.70;0.70;;;;;;;0.95;84.09;96463.13;29373;198;63004;-56
2022/12/08 00:12:42;;;;;;;0.68;0.68;;;;;;;0.94;84.04;96461.50;29373;224;63009;-56
2022/12/08 00:13:13;;;;;;;0.70;0.70;;;;;;;0.94;83.78;96456.97;29373;339;63005;-56
2022/12/08 00:13:45;;;;;;;0.70;0.70;;;;;;;0.94;84.30;96462.31;29373;199;63009;-56
2022/12/08 00:14:16;;;;;;;0.80;0.80;;;;;;;0.95;84.33;96460.44;29373;283;63005;-56
2022/12/08 00:14:48;;;;;;;0.60;0.60;;;;;;;0.95;84.00;96452.44;29373;202;63013;-56
2022/12/08 00:15:20;;;;;;;0.70;0.70;;;;;;;0.94;83.62;96456.97;29373;218;63005;-56
2022/12/08 00:15:51;;;;;;;1.58;1.52;;;;;;;0.95;83.63;96452.44;29373;210;63009;-56
2022/12/08 00:16:24;;;;;;;0.60;0.60;;;;;;;0.95;83.80;96457.78;29371;293;64009;-55
2022/12/08 00:16:56;;;;;;;0.68;0.68;;;;;;;0.95;84.06;96457.78;29373;268;63009;-56
2022/12/08 00:17:27;;;;;;;0.70;0.70;;;;;;;0.95;83.83;96455.91;29373;197;63003;-56
2022/12/08 00:17:58;;;;;;;1.42;1.33;;;;;;;0.94;83.79;96458.84;29373;275;63009;-56
2022/12/08 00:18:30;;;;;;;1.12;1.05;;;;;;;0.93;83.80;96449.19;29371;197;64009;-56
2022/12/08 00:19:05;;;;;;;0.60;0.60;;;;;;;0.90;83.45;96455.03;29371;293;64013;-56
2022/12/08 00:19:38;;;;;;;0.60;0.60;;;;;;;0.88;83.89;96460.59;29373;341;63004;-55
2022/12/08 00:20:10;;;;;;;0.60;0.60;;;;;;;0.88;83.81;96465.13;29373;213;63009;-56
2022/12/08 00:20:42;;;;;;;0.70;0.70;;;;;;;0.87;83.76;96460.84;29395;199;63005;-55
2022/12/08 00:21:13;;;;;;;0.70;0.70;;;;;;;0.85;83.97;96462.94;29371;203;64014;-55
2022/12/08 00:21:45;;;;;;;0.75;0.75;;;;;;;0.84;84.27;96462.13;29371;236;64009;-55
2022/12/08 00:22:16;;;;;;;0.70;0.70;;;;;;;0.84;84.37;96455.97;29373;255;63026;-56
2022/12/08 00:22:47;;;;;;;0.60;0.60;;;;;;;0.80;84.51;96458.31;29373;242;63005;-56
2022/12/08 00:23:18;;;;;;;0.70;0.70;;;;;;;0.78;84.53;96459.63;29373;270;63016;-56
2022/12/08 00:23:49;;;;;;;0.60;0.60;;;;;;;0.76;84.75;96459.84;29373;236;63005;-56
2022/12/08 00:24:22;;;;;;;0.60;0.60;;;;;;;0.73;85.28;96457.66;29373;322;63009;-56
2022/12/08 00:24:57;;;;;;;0.60;0.60;;;;;;;0.72;85.13;96455.22;29373;279;63004;-56
2022/12/08 00:25:28;;;;;;;0.60;0.60;;;;;;;0.68;85.35;96452.25;29373;289;63009;-56
2022/12/08 00:26:03;;;;;;;0.85;0.85;;;;;;;0.71;84.97;96456.28;29373;241;63004;-56
2022/12/08 00:26:37;;;;;;;0.70;0.70;;;;;;;0.72;84.80;96452.56;29371;196;64013;-56
2022/12/08 00:27:10;;;;;;;0.60;0.60;;;;;;;0.72;85.00;96452.56;29373;279;63004;-56
2022/12/08 00:27:41;;;;;;;0.60;0.60;;;;;;;0.71;85.20;96445.59;29373;292;63009;-56
2022/12/08 00:28:13;;;;;;;0.70;0.70;;;;;;;0.69;84.87;96456.56;29373;197;63005;-54
2022/12/08 00:28:45;;;;;;;0.60;0.60;;;;;;;0.68;85.08;96451.44;29373;363;63009;-57
2022/12/08 00:29:16;;;;;;;0.60;0.60;;;;;;;0.65;84.91;96453.56;29373;266;63014;-56
2022/12/08 00:29:48;;;;;;;0.60;0.60;;;;;;;0.63;84.88;96450.31;29373;237;63009;-56
2022/12/08 00:30:20;;;;;;;0.70;0.70;;;;;;;0.63;85.43;96450.31;29371;273;64009;-56
2022/12/08 00:30:51;;;;;;;0.70;0.70;;;;;;;0.61;84.94;96447.06;29373;204;63009;-56
2022/12/08 00:31:22;;;;;;;1.45;1.45;;;;;;;0.58;84.79;96452.88;29373;228;63005;-56
2022/12/08 00:31:53;;;;;;;0.70;0.70;;;;;;;0.56;85.25;96454.97;29395;248;63024;-55
2022/12/08 00:32:25;;;;;;;0.60;0.60;;;;;;;0.52;85.12;96448.50;29395;227;63004;-56
2022/12/08 00:32:56;;;;;;;0.60;0.60;;;;;;;0.50;85.83;96447.94;29395;351;63009;-56
2022/12/08 00:33:28;;;;;;;0.70;0.70;;;;;;;0.49;85.57;96448.97;29395;212;63000;-56
2022/12/08 00:33:59;;;;;;;0.68;0.68;;;;;;;0.49;85.92;96446.31;29395;220;63009;-56
2022/12/08 00:34:32;;;;;;;0.60;0.60;;;;;;;0.48;86.04;96444.69;29395;328;63015;-56
2022/12/08 00:35:04;;;;;;;0.70;0.70;;;;;;;0.51;86.08;96451.41;29371;203;64013;-56
2022/12/08 00:35:35;;;;;;;0.60;0.60;;;;;;;0.53;85.93;96441.31;29373;394;63005;-56
2022/12/08 00:36:10;;;;;;;0.60;0.60;;;;;;;0.52;85.82;96443.16;29371;216;64014;-56
2022/12/08 00:36:42;;;;;;;0.60;0.60;;;;;;;0.50;85.59;96445.25;29373;215;63005;-56
2022/12/08 00:37:14;;;;;;;0.70;0.70;;;;;;;0.46;85.74;96441.44;29371;196;64013;-74
2022/12/08 00:37:45;;;;;;;0.60;0.60;;;;;;;0.43;85.84;96439.25;29373;222;63005;-56
2022/12/08 00:38:18;;;;;;;0.70;0.70;;;;;;;0.40;86.00;96445.06;29373;334;63009;-56
2022/12/08 00:38:49;;;;;;;0.80;0.80;;;;;;;0.36;85.86;96441.25;29373;285;63005;-56
2022/12/08 00:39:21;;;;;;;0.60;0.60;;;;;;;0.35;86.27;96442.31;29373;367;63009;-56
2022/12/08 00:39:52;;;;;;;0.65;0.65;;;;;;;0.31;86.38;96435.84;29371;229;64009;-55
2022/12/08 00:40:23;;;;;;;0.70;0.70;;;;;;;0.31;86.67;96441.19;29373;388;63014;-55
2022/12/08 00:40:55;;;;;;;0.70;0.70;;;;;;;0.28;86.56;96441.66;29373;202;63004;-56
2022/12/08 00:42:17;;;;;;;0.68;0.68;;;;;;;0.24;86.59;96436.00;29417;234;63004;-55
2022/12/08 00:42:48;;;;;;;0.60;0.60;;;;;;;0.24;86.77;96437.84;29373;226;63009;-74
2022/12/08 00:43:19;;;;;;;3.60;3.47;;;;;;;0.23;86.62;96434.37;29373;218;63005;-56
2022/12/08 00:43:51;;;;;;;0.60;0.60;;;;;;;0.25;87.03;96431.47;29373;216;63009;-56
2022/12/08 00:44:23;;;;;;;0.70;0.70;;;;;;;0.25;86.80;96436.78;29373;206;63005;-56
2022/12/08 00:44:54;;;;;;;0.70;0.70;;;;;;;0.23;86.93;96433.56;29371;337;64013;-56
2022/12/08 00:45:26;;;;;;;0.70;0.70;;;;;;;0.20;86.79;96429.50;29373;340;63007;-56
2022/12/08 00:45:57;;;;;;;0.70;0.70;;;;;;;0.18;87.27;96431.59;29373;299;63009;-56
2022/12/08 00:46:29;;;;;;;0.68;0.68;;;;;;;0.16;87.32;96432.88;29373;274;63004;-56
2022/12/08 00:47:00;;;;;;;0.70;0.70;;;;;;;0.16;87.51;96430.22;29373;275;63009;-56
2022/12/08 00:47:31;;;;;;;0.70;0.70;;;;;;;0.16;87.53;96427.56;29373;356;63004;-55
2022/12/08 00:48:04;;;;;;;0.70;0.70;;;;;;;0.15;87.28;96436.59;29373;335;63009;-57
2022/12/08 00:48:35;;;;;;;0.70;0.70;;;;;;;0.12;87.00;96431.72;29373;218;63004;-56
2022/12/08 00:49:07;;;;;;;0.70;0.70;;;;;;;0.10;87.50;96428.50;29373;252;63008;-56
2022/12/08 00:49:38;;;;;;;0.70;0.70;;;;;;;0.08;87.71;96430.59;29373;284;63004;-56
2022/12/08 00:50:10;;;;;;;0.62;0.62;;;;;;;0.04;87.55;96437.44;29371;346;64012;-56
2022/12/08 00:50:42;;;;;;;0.75;0.75;;;;;;;0.03;88.06;96433.16;29373;197;63005;-56
2022/12/08 00:51:13;;;;;;;0.90;0.90;;;;;;;0.00;87.90;96424.56;29373;241;63016;-56
2022/12/08 00:51:45;;;;;;;0.70;0.70;;;;;;;-0.04;87.84;96423.47;29373;226;63005;-56
2022/12/08 00:52:16;;;;;;;0.60;0.60;;;;;;;-0.04;88.06;96428.78;29373;209;63009;-55
2022/12/08 00:52:47;;;;;;;0.60;0.60;;;;;;;-0.07;88.18;96423.94;29373;197;63009;-56
2022/12/08 00:53:20;;;;;;;0.60;0.60;;;;;;;-0.02;88.24;96424.03;29373;370;63009;-56
2022/12/08 00:53:51;;;;;;;0.70;0.70;;;;;;;0.00;88.19;96431.81;29373;297;63004;-56
2022/12/08 00:54:26;;;;;;;0.70;0.70;;;;;;;0.00;88.36;96424.56;29373;203;63009;-56
2022/12/08 00:54:57;;;;;;;0.60;0.60;;;;;;;0.02;88.10;96421.66;29373;317;63012;-56
2022/12/08 00:55:28;;;;;;;0.62;0.62;;;;;;;0.04;88.31;96424.09;29371;202;64013;-56
2022/12/08 00:56:00;;;;;;;0.65;0.65;;;;;;;0.03;87.92;96427.81;29395;314;63004;-56
2022/12/08 00:56:32;;;;;;;0.70;0.70;;;;;;;0.03;87.74;96427.81;29373;334;63008;-55
2022/12/08 00:57:03;;;;;;;0.70;0.70;;;;;;;-0.02;87.86;96421.38;29373;226;63005;-56
2022/12/08 00:57:34;;;;;;;0.70;0.70;;;;;;;-0.03;87.89;96425.06;29373;364;63016;-56
2022/12/08 00:58:05;;;;;;;0.70;0.70;;;;;;;-0.05;88.01;96424.50;29373;364;63005;-56
2022/12/08 00:58:37;;;;;;;0.70;0.70;;;;;;;-0.07;88.27;96423.94;29373;199;63009;-56
2022/12/08 00:59:09;;;;;;;0.65;0.65;;;;;;;-0.08;87.87;96421.50;29373;285;63005;-55
2022/12/08 00:59:40;;;;;;;0.65;0.65;;;;;;;-0.09;87.93;96426.03;29373;371;63009;-55
2022/12/08 01:00:12;;;;;;;0.70;0.70;;;;;;;-0.11;87.82;96422.78;29373;303;63005;-56
2022/12/08 01:00:44;;;;;;;0.62;0.62;;;;;;;-0.14;88.06;96425.91;29371;202;64013;-56
2022/12/08 01:01:17;;;;;;;0.70;0.70;;;;;;;-0.16;88.37;96430.69;29373;202;63004;-55
2022/12/08 01:01:49;;;;;;;0.70;0.70;;;;;;;-0.16;88.11;96428.00;29373;250;63026;-56
2022/12/08 01:02:23;;;;;;;0.60;0.60;;;;;;;-0.18;88.13;96427.44;29373;319;63004;-56
2022/12/08 01:02:55;;;;;;;0.60;0.60;;;;;;;-0.19;88.55;96431.12;29373;254;63009;-56
2022/12/08 01:03:26;;;;;;;0.70;0.70;;;;;;;-0.20;88.36;96426.84;29373;253;63010;-56
2022/12/08 01:03:57;;;;;;;0.62;0.62;;;;;;;-0.22;88.21;96422.81;29373;331;63008;-56
2022/12/08 01:04:29;;;;;;;0.70;0.70;;;;;;;-0.24;88.23;96423.03;29373;292;63005;-55
2022/12/08 01:05:00;;;;;;;0.70;0.70;;;;;;;-0.24;88.36;96428.38;29373;224;63009;-56
2022/12/08 01:05:31;;;;;;;0.60;0.60;;;;;;;-0.23;88.41;96423.84;29373;222;63005;-56
2022/12/08 01:06:04;;;;;;;0.70;0.70;;;;;;;-0.24;88.11;96428.38;29371;200;64014;-56
2022/12/08 01:06:36;;;;;;;0.60;0.60;;;;;;;-0.23;88.23;96422.00;29373;226;63005;-56
2022/12/08 01:07:07;;;;;;;0.68;0.68;;;;;;;-0.25;88.09;96425.94;29373;365;63009;-57
2022/12/08 01:07:40;;;;;;;0.60;0.60;;;;;;;-0.28;88.19;96421.88;29373;284;63005;-55
2022/12/08 01:08:11;;;;;;;0.60;0.60;;;;;;;-0.28;88.18;96415.75;29373;219;63009;-57
2022/12/08 01:08:43;;;;;;;0.70;0.70;;;;;;;-0.30;88.09;96423.97;29373;206;63004;-55
2022/12/08 01:09:15;;;;;;;0.70;0.70;;;;;;;-0.31;88.87;96427.69;29373;272;63009;-56
2022/12/08 01:09:47;;;;;;;0.70;0.70;;;;;;;-0.32;88.69;96431.41;29373;199;63016;-56
2022/12/08 01:10:18;;;;;;;0.70;0.70;;;;;;;-0.39;88.63;96414.75;29373;243;63009;-55
2022/12/08 01:10:49;;;;;;;0.70;0.70;;;;;;;-0.38;88.49;96427.03;29373;205;63004;-56
2022/12/08 01:11:20;;;;;;;0.70;0.70;;;;;;;-0.40;88.72;96424.59;29371;282;64013;-56
2022/12/08 01:11:52;;;;;;;0.60;0.60;;;;;;;-0.41;88.89;96422.97;29373;249;63004;-56
2022/12/08 01:12:23;;;;;;;0.70;0.70;;;;;;;-0.42;88.88;96420.53;29373;303;63009;-56
2022/12/08 01:12:55;;;;;;;0.68;0.68;;;;;;;-0.44;88.95;96422.62;29373;300;63005;-57
2022/12/08 01:13:27;;;;;;;0.60;0.60;;;;;;;-0.44;89.05;96428.78;29373;237;63009;-56
2022/12/08 01:13:58;;;;;;;0.62;0.62;;;;;;;-0.43;89.26;96426.91;29373;271;63005;-56
2022/12/08 01:14:29;;;;;;;0.70;0.70;;;;;;;-0.43;89.27;96426.91;29373;220;63009;-56
2022/12/08 01:15:01;;;;;;;0.60;0.60;;;;;;;-0.44;89.40;96426.09;29373;244;63005;-55
2022/12/08 01:15:32;;;;;;;2.85;1.50;;;;;;;-0.47;89.14;96428.44;29373;233;63016;-76
2022/12/08 01:16:04;;;;;;;0.70;0.70;;;;;;;-0.52;89.31;96425.66;29373;253;63005;-56
2022/12/08 01:16:35;;;;;;;0.70;0.70;;;;;;;-0.55;89.39;96426.13;29371;357;64013;-56
2022/12/08 01:17:07;;;;;;;0.60;0.60;;;;;;;-0.55;89.62;96420.78;29373;199;63017;-56
2022/12/08 01:17:38;;;;;;;0.70;0.70;;;;;;;-0.52;89.86;96425.66;29373;337;63009;-56
2022/12/08 01:18:09;;;;;;;0.70;0.70;;;;;;;-0.50;89.88;96432.38;29371;256;64009;-56
2022/12/08 01:18:41;;;;;;;0.68;0.68;;;;;;;-0.47;90.08;96429.25;29373;254;63009;-55
2022/12/08 01:19:15;;;;;;;0.70;0.70;;;;;;;-0.47;89.58;96429.25;29371;202;64008;-56
2022/12/08 01:19:47;;;;;;;0.70;0.70;;;;;;;-0.48;89.84;96432.94;29373;248;63009;-75
2022/12/08 01:20:18;;;;;;;0.70;0.70;;;;;;;-0.47;89.86;96425.75;29373;245;63008;-55
2022/12/08 01:20:49;;;;;;;0.70;0.70;;;;;;;-0.46;89.54;96432.72;29373;200;63009;-56
2022/12/08 01:21:20;;;;;;;0.70;0.70;;;;;;;-0.45;89.61;96434.34;29373;224;63005;-55
2022/12/08 01:21:51;;;;;;;0.70;0.70;;;;;;;-0.44;89.55;96431.44;29373;246;63018;-55
2022/12/08 01:22:24;;;;;;;0.70;0.70;;;;;;;-0.44;89.48;96428.78;29373;340;63005;-56
2022/12/08 01:22:55;;;;;;;0.70;0.70;;;;;;;-0.44;89.82;96438.62;29373;327;63009;-55
2022/12/08 01:23:27;;;;;;;0.70;0.70;;;;;;;-0.46;89.74;96436.19;29373;217;63005;-56
2022/12/08 01:24:01;;;;;;;0.70;0.70;;;;;;;-0.47;89.56;96433.75;29371;255;64021;-56
2022/12/08 01:24:32;;;;;;;0.80;0.80;;;;;;;-0.52;89.91;96434.47;29373;227;63018;-56
2022/12/08 01:25:05;;;;;;;0.75;0.75;;;;;;;-0.54;90.17;96433.06;29373;352;63009;-56
2022/12/08 01:25:37;;;;;;;0.70;0.70;;;;;;;-0.56;89.90;96429.81;29373;210;63004;-56
2022/12/08 01:26:10;;;;;;;0.70;0.70;;;;;;;-0.58;89.86;96437.25;29373;215;63017;-56
2022/12/08 01:26:42;;;;;;;0.70;0.70;;;;;;;-0.60;90.04;96434.00;29373;222;63004;-56
2022/12/08 01:27:15;;;;;;;0.70;0.70;;;;;;;-0.63;90.31;96434.47;29373;284;63009;-55
2022/12/08 01:27:47;;;;;;;0.80;0.80;;;;;;;-0.62;90.68;96441.41;29373;312;63005;-56
2022/12/08 01:28:18;;;;;;;0.70;0.70;;;;;;;-0.64;90.51;96432.84;29373;225;63009;-56
2022/12/08 01:28:50;;;;;;;0.70;0.70;;;;;;;-0.69;90.41;96442.34;29373;320;63005;-56
2022/12/08 01:29:21;;;;;;;2.05;1.95;;;;;;;-0.72;90.61;96436.69;29371;236;64013;-56
2022/12/08 01:29:52;;;;;;;0.70;0.70;;;;;;;-0.74;90.89;96439.59;29373;238;63005;-57
2022/12/08 01:30:24;;;;;;;0.70;0.70;;;;;;;-0.74;90.65;96444.91;29372;271;63009;-56
2022/12/08 01:30:55;;;;;;;0.70;0.70;;;;;;;-0.73;90.72;96441.19;29373;312;63005;-56
2022/12/08 01:31:26;;;;;;;0.70;0.70;;;;;;;-0.71;90.86;96441.78;29373;212;63009;-56
2022/12/08 01:33:06;;;;;;;0.76;0.76;;;;;;;-0.72;90.77;96436.69;88174;196;64004;-56
2022/12/08 01:33:38;;;;;;;0.70;0.70;;;;;;;-0.75;90.66;96437.97;29394;223;64009;-56
2022/12/08 01:34:11;;;;;;;2.50;2.35;;;;;;;-0.80;90.58;96437.84;29373;206;63005;-56
2022/12/08 01:34:42;;;;;;;0.70;0.70;;;;;;;-0.81;91.18;96438.88;29371;286;64013;-55
2022/12/08 01:35:14;;;;;;;0.70;0.70;;;;;;;-0.82;91.37;96429.28;29373;234;63010;-56
2022/12/08 01:35:46;;;;;;;0.70;0.70;;;;;;;-0.80;91.60;96435.19;29373;277;63009;-56
2022/12/08 01:36:21;;;;;;;0.50;0.50;;;;;;;-0.78;91.28;96433.09;29373;212;63004;-56
2022/12/08 01:36:52;;;;;;;0.70;0.70;;;;;;;-0.74;91.37;96439.59;29373;208;63009;-56
2022/12/08 01:37:23;;;;;;;1.87;1.87;;;;;;;-0.72;91.20;96442.81;29373;202;63004;-56
2022/12/08 01:37:55;;;;;;;0.70;0.70;;;;;;;-0.70;91.19;96435.41;29373;252;63009;-55
2022/12/08 01:38:29;;;;;;;0.70;0.70;;;;;;;-0.69;91.02;96429.00;29373;206;63004;-55
2022/12/08 01:39:01;;;;;;;0.60;0.60;;;;;;;-0.67;91.22;96434.91;29373;227;63008;-56
2022/12/08 01:39:34;;;;;;;0.60;0.60;;;;;;;-0.65;90.73;96437.34;29371;212;64009;-75
2022/12/08 01:40:06;;;;;;;0.70;0.70;;;;;;;-0.64;90.96;96433.66;29373;202;63009;-56
2022/12/08 01:40:38;;;;;;;0.70;0.70;;;;;;;-0.63;90.65;96429.94;29373;210;63005;-57
2022/12/08 01:41:13;;;;;;;0.70;0.70;;;;;;;-0.61;91.08;96424.38;29373;216;63009;-55
2022/12/08 01:41:46;;;;;;;0.70;0.70;;;;;;;-0.60;90.97;96428.66;29373;222;63008;-56
2022/12/08 01:42:20;;;;;;;0.70;0.70;;;;;;;-0.59;90.48;96430.28;29371;259;64029;-57
2022/12/08 01:42:52;;;;;;;0.70;0.70;;;;;;;-0.58;90.83;96429.25;29373;284;63005;-57
2022/12/08 01:43:23;;;;;;;0.70;0.70;;;;;;;-0.57;90.72;96436.19;29373;223;63009;-56
2022/12/08 01:44:19;;;;;;;0.70;0.70;;;;;;;-0.57;90.24;96423.69;29373;207;63004;-56
2022/12/08 01:45:03;;;;;;;0.70;0.70;;;;;;;-0.55;90.40;96432.25;29373;293;63009;-56
2022/12/08 01:45:34;;;;;;;0.70;0.70;;;;;;;-0.54;90.40;96428.53;29373;225;63004;-55
2022/12/08 01:46:05;;;;;;;0.70;0.70;;;;;;;-0.54;90.37;96430.41;29373;284;63008;-56
2022/12/08 01:46:40;;;;;;;0.70;0.70;;;;;;;-0.52;90.14;96430.97;29373;224;63004;-56
2022/12/08 01:47:11;;;;;;;0.70;0.70;;;;;;;-0.51;90.17;96421.94;29371;198;64014;-55
2022/12/08 01:47:47;;;;;;;0.70;0.70;;;;;;;-0.50;89.93;96426.22;29373;324;63005;-57
2022/12/08 01:48:26;;;;;;;0.70;0.70;;;;;;;-0.47;89.85;96423.09;29371;316;64014;-56
2022/12/08 01:49:20;;;;;;;0.70;0.70;;;;;;;-0.47;89.49;96428.44;29373;334;63005;-56
2022/12/08 01:49:51;;;;;;;0.70;0.70;;;;;;;-0.48;89.83;96427.63;29373;216;63009;-56
2022/12/08 01:50:27;;;;;;;0.62;0.62;;;;;;;-0.46;89.51;96430.06;29373;214;63005;-56
2022/12/08 01:50:58;;;;;;;0.60;0.60;;;;;;;-0.48;89.74;96426.81;29373;230;63009;-56
2022/12/08 01:51:36;;;;;;;0.65;0.65;;;;;;;-0.47;89.30;96433.75;29373;218;63004;-56
2022/12/08 01:52:17;;;;;;;0.70;0.70;;;;;;;-0.47;89.35;96428.44;29371;277;64013;-55
2022/12/08 01:52:58;;;;;;;0.70;0.70;;;;;;;-0.46;89.43;96430.06;29395;288;63004;-56
2022/12/08 01:53:32;;;;;;;0.70;0.70;;;;;;;-0.47;89.88;96428.44;29395;220;63024;-56
2022/12/08 01:54:06;;;;;;;0.70;0.70;;;;;;;-0.48;89.15;96426.81;29373;209;63004;-56
2022/12/08 01:54:48;;;;;;;0.70;0.70;;;;;;;-0.49;89.75;96419.84;29373;249;63009;-55
2022/12/08 01:55:30;;;;;;;0.70;0.70;;;;;;;-0.49;89.73;96425.19;29373;211;63010;-55
2022/12/08 01:56:12;;;;;;;0.70;0.70;;;;;;;-0.50;90.03;96423.56;29373;255;63009;-56
2022/12/08 01:56:55;;;;;;;0.70;0.70;;;;;;;-0.50;89.90;96428.88;29371;204;64009;-56
2022/12/08 01:57:54;;;;;;;0.80;0.80;;;;;;;-0.49;89.78;96426.00;29373;332;63024;-56
2022/12/08 01:58:35;;;;;;;0.60;0.60;;;;;;;-0.48;89.82;96422.28;29371;271;64009;-55
2022/12/08 01:59:08;;;;;;;0.80;0.80;;;;;;;-0.49;89.89;96430.50;29395;203;63014;-56
2022/12/08 01:59:45;;;;;;;0.70;0.70;;;;;;;-0.48;89.81;96424.13;29394;208;64009;-55
2022/12/08 02:00:20;;;;;;;0.65;0.65;;;;;;;-0.50;89.42;96423.56;29371;244;64013;-55
2022/12/08 02:00:52;;;;;;;0.70;0.70;;;;;;;-0.50;89.66;96423.56;29373;331;63004;-55
2022/12/08 02:01:25;;;;;;;0.70;0.70;;;;;;;-0.51;89.82;96421.94;29373;290;63022;-55
2022/12/08 02:01:57;;;;;;;0.70;0.70;;;;;;;-0.51;89.84;96419.28;29373;220;63005;-56
2022/12/08 02:02:35;;;;;;;0.70;0.70;;;;;;;-0.51;89.91;96416.63;29371;327;64014;-56
2022/12/08 02:03:12;;;;;;;0.70;0.70;;;;;;;-0.52;90.11;96410.47;29371;320;64009;-56
2022/12/08 02:04:08;;;;;;;0.70;0.70;;;;;;;-0.51;89.89;96411.28;29373;212;63009;-56
2022/12/08 02:04:39;;;;;;;0.70;0.70;;;;;;;-0.52;90.10;96415.00;29373;198;63005;-56
2022/12/08 02:05:12;;;;;;;0.60;0.60;;;;;;;-0.52;90.28;96409.66;29373;277;63009;-55
2022/12/08 02:05:45;;;;;;;1.15;1.15;;;;;;;-0.52;89.77;96415.00;29373;229;63004;-55
2022/12/08 02:06:18;;;;;;;0.70;0.70;;;;;;;-0.53;90.06;96411.50;29373;265;63009;-56
2022/12/08 02:06:50;;;;;;;0.60;0.60;;;;;;;-0.54;89.58;96409.91;29373;202;63004;-55
2022/12/08 02:07:23;;;;;;;0.70;0.70;;;;;;;-0.55;90.06;96410.13;29373;312;63009;-56
2022/12/08 02:07:56;;;;;;;0.70;0.70;;;;;;;-0.55;89.98;96412.78;29373;204;63004;-56
2022/12/08 02:08:29;;;;;;;0.70;0.70;;;;;;;-0.57;90.09;96410.34;29371;214;64013;-56
2022/12/08 02:09:04;;;;;;;0.70;0.70;;;;;;;-0.56;90.00;96408.50;29373;197;63005;-56
2022/12/08 02:09:37;;;;;;;0.60;0.60;;;;;;;-0.56;90.26;96413.84;29373;216;63009;-56
2022/12/08 02:10:13;;;;;;;0.70;0.70;;;;;;;-0.56;90.21;96403.97;29373;224;63005;-55
2022/12/08 02:10:46;;;;;;;0.70;0.70;;;;;;;-0.55;90.44;96410.13;29373;207;63009;-55
2022/12/08 02:11:17;;;;;;;0.70;0.70;;;;;;;-0.55;90.34;96410.13;29371;216;63999;-55
2022/12/08 02:11:50;;;;;;;0.70;0.70;;;;;;;-0.54;90.38;96403.75;29373;213;63009;-56
2022/12/08 02:12:21;;;;;;;0.70;0.70;;;;;;;-0.53;90.15;96403.53;29373;221;63005;-56
2022/12/08 02:12:58;;;;;;;0.60;0.60;;;;;;;-0.51;90.47;96400.62;29373;327;63009;-56
2022/12/08 02:13:31;;;;;;;0.70;0.70;;;;;;;-0.51;90.30;96408.63;29373;229;63004;-56
2022/12/08 02:14:07;;;;;;;0.70;0.70;;;;;;;-0.46;89.81;96411.37;29372;199;64013;-56
2022/12/08 02:14:39;;;;;;;0.70;0.70;;;;;;;-0.45;89.53;96407.69;29373;314;63004;-56
2022/12/08 02:15:11;;;;;;;0.70;0.70;;;;;;;-0.44;89.66;96406.62;29373;204;63009;-55
2022/12/08 02:16:45;;;;;;;0.70;0.70;;;;;;;-0.44;88.84;96406.62;29373;282;63004;-56
2022/12/08 02:17:51;;;;;;;0.70;0.70;;;;;;;-0.49;89.34;96412.66;29371;226;64014;-56
2022/12/08 02:18:56;;;;;;;0.70;0.70;;;;;;;-0.49;89.95;96409.19;29373;217;63005;-56
2022/12/08 02:20:36;;;;;;;0.60;0.60;;;;;;;-0.49;89.85;96404.69;29371;214;64009;-56
2022/12/08 02:21:26;;;;;;;0.80;0.80;;;;;;;-0.47;89.74;96407.09;29373;224;63009;-56
2022/12/08 02:22:39;;;;;;;0.70;0.70;;;;;;;-0.51;89.84;96401.44;29373;284;63004;-56
2022/12/08 02:23:56;;;;;;;0.70;0.70;;;;;;;-0.58;89.72;96397.28;29395;218;63008;-55
2022/12/08 02:24:53;;;;;;;0.70;0.70;;;;;;;-0.62;90.42;96396.13;29395;216;63005;-56
2022/12/08 02:26:04;;;;;;;0.70;0.70;;;;;;;-0.66;90.32;96393.09;29371;216;64013;-56
2022/12/08 02:27:15;;;;;;;0.60;0.60;;;;;;;-0.65;90.46;96393.91;29373;226;63005;-56
2022/12/08 02:28:35;;;;;;;0.70;0.70;;;;;;;-0.67;90.29;96392.28;29373;203;63009;-56
2022/12/08 02:29:49;;;;;;;0.70;0.70;;;;;;;-0.70;90.48;96387.47;29373;206;63004;-56
2022/12/08 02:30:49;;;;;;;0.70;0.70;;;;;;;-0.74;90.19;96383.63;29373;284;63004;-56
2022/12/08 02:32:17;;;;;;;0.73;0.73;;;;;;;-0.76;90.49;96380.41;29371;219;64014;-56
2022/12/08 02:33:31;;;;;;;0.80;0.80;;;;;;;-0.75;90.56;96382.03;29373;196;63005;-56
2022/12/08 02:34:39;;;;;;;0.80;0.80;;;;;;;-0.76;90.59;96376.91;29373;238;63016;-56
2022/12/08 02:35:46;;;;;;;0.73;0.73;;;;;;;-0.76;90.56;96377.72;29373;203;63005;-55
2022/12/08 02:36:59;;;;;;;0.70;0.70;;;;;;;-0.75;90.97;96368.69;29373;204;63009;-56
2022/12/08 02:37:55;;;;;;;0.80;0.80;;;;;;;-0.75;90.84;96373.22;29393;228;64009;-56
2022/12/08 02:38:59;;;;;;;0.65;0.65;;;;;;;-0.75;90.85;96374.03;29394;207;64013;-56
2022/12/08 02:40:03;;;;;;;0.70;0.70;;;;;;;-0.75;90.39;96379.34;29373;219;63005;-56
2022/12/08 02:40:47;;;;;;;0.70;0.70;;;;;;;-0.73;90.52;96369.28;29371;262;64001;-56
2022/12/08 02:41:41;;;;;;;0.70;0.70;;;;;;;-0.71;90.66;96369.84;29371;250;64009;-56
2022/12/08 02:42:43;;;;;;;0.70;0.70;;;;;;;-0.70;90.50;96370.66;29373;202;63009;-55
2022/12/08 02:43:34;;;;;;;0.70;0.70;;;;;;;-0.71;90.29;96377.84;29373;204;63004;-57
2022/12/08 02:44:28;;;;;;;0.70;0.70;;;;;;;-0.72;90.37;96368.22;29395;237;63009;-55
2022/12/08 02:45:08;;;;;;;0.70;0.70;;;;;;;-0.73;90.59;96363.94;29395;231;63004;-56
2022/12/08 02:45:45;;;;;;;0.70;0.70;;;;;;;-0.74;90.45;96370.31;29371;290;64013;-56
2022/12/08 02:46:38;;;;;;;0.70;0.70;;;;;;;-0.74;90.63;96361.50;29373;204;63005;-55
2022/12/08 02:47:17;;;;;;;0.70;0.70;;;;;;;-0.75;90.86;96366.03;29371;219;64014;-56
2022/12/08 02:47:50;;;;;;;0.70;0.70;;;;;;;-0.75;90.57;96366.03;29373;223;63005;-75
2022/12/08 02:48:21;;;;;;;0.70;0.70;;;;;;;-0.76;90.84;96367.06;29373;212;63009;-56
2022/12/08 02:48:54;;;;;;;0.70;0.70;;;;;;;-0.75;90.71;96366.03;29373;214;63005;-56
2022/12/08 02:49:33;;;;;;;0.70;0.70;;;;;;;-0.75;90.82;96362.56;29373;241;63009;-56
2022/12/08 02:50:08;;;;;;;0.70;0.70;;;;;;;-0.74;90.54;96358.84;29373;260;63005;-56
2022/12/08 02:50:40;;;;;;;0.70;0.70;;;;;;;-0.78;90.55;96358.50;29373;224;63009;-55
2022/12/08 02:51:11;;;;;;;0.62;0.62;;;;;;;-0.77;90.40;96354.00;29373;224;63004;-56
2022/12/08 02:51:42;;;;;;;3.37;3.25;;;;;;;-0.77;90.88;96356.66;29373;234;63009;-56
2022/12/08 02:52:37;;;;;;;0.70;0.70;;;;;;;-0.78;90.73;96355.84;29371;231;64009;-56
2022/12/08 02:53:09;;;;;;;0.70;0.70;;;;;;;-0.78;90.64;96358.50;29373;222;63008;-56
2022/12/08 02:53:41;;;;;;;0.70;0.70;;;;;;;-0.81;90.47;96348.31;29373;209;63013;-56
2022/12/08 02:54:14;;;;;;;0.60;0.60;;;;;;;-0.81;90.79;96358.97;29373;282;63014;-55
2022/12/08 02:54:56;;;;;;;0.70;0.70;;;;;;;-0.80;90.26;96357.13;29373;204;63009;-55
2022/12/08 02:55:50;;;;;;;0.70;0.70;;;;;;;-0.80;90.54;96349.13;29374;219;63005;-56
2022/12/08 02:57:02;;;;;;;0.70;0.70;;;;;;;-0.81;90.52;96353.66;29373;215;63009;-56
2022/12/08 02:58:14;;;;;;;0.70;0.70;;;;;;;-0.80;90.24;96349.94;29393;237;64013;-56
2022/12/08 02:59:10;;;;;;;0.70;0.70;;;;;;;-0.79;90.83;96350.75;29479;295;125004;-55
2022/12/08 03:00:01;;;;;;;0.70;0.70;;;;;;;-0.78;90.50;96360.38;29394;213;64013;-55
2022/12/08 03:01:00;;;;;;;0.77;0.77;;;;;;;-0.78;90.46;96361.16;29395;199;63004;-56
2022/12/08 03:02:14;;;;;;;1.15;1.15;;;;;;;-0.79;90.69;96351.56;29373;288;63009;-56
2022/12/08 03:03:17;;;;;;;0.70;0.70;;;;;;;-0.78;90.25;96352.38;29372;225;63009;-57
2022/12/08 03:04:21;;;;;;;0.70;0.70;;;;;;;-0.80;90.36;96355.25;29373;211;63012;-57